Terminal Aerodrome Forecast
Issued by NWS

Home | Current Version | Previous Version | Text Only | Print | Product List | Glossary On
Versions: 1 2 3 4 5 6 7 8 9 10 11 12 13 14 15 16 17 18 19 20 21
000
FTUS43 KMPX 261727
TAFRWF
TAF
KRWF 261727Z 2618/2718 31013G20KT P6SM BKN015 OVC030
     FM262200 31012KT P6SM BKN025 OVC040
     FM270100 30006KT P6SM SCT025 BKN040
     FM270700 29006KT 5SM BR SCT025
     FM271000 28004KT 2SM BR BKN005
     FM271400 29006KT P6SM FEW015=

USA.gov is the U.S. government's official web portal to all federal, state and local government web resources and services.